sensor_id;sensor_type;location;lat;lon;timestamp;P1;durP1;ratioP1;P2;durP2;ratioP2
13083;SDS011;6608;48.790;9.198;2023-11-19T00:02:11;127.30;;;56.43;;
13083;SDS011;6608;48.790;9.198;2023-11-19T00:04:37;122.67;;;55.53;;
13083;SDS011;6608;48.790;9.198;2023-11-19T00:07:06;125.77;;;56.03;;
13083;SDS011;6608;48.790;9.198;2023-11-19T00:09:35;123.97;;;56.20;;
13083;SDS011;6608;48.790;9.198;2023-11-19T00:12:02;127.60;;;56.17;;
13083;SDS011;6608;48.790;9.198;2023-11-19T00:14:29;124.83;;;55.77;;
13083;SDS011;6608;48.790;9.198;2023-11-19T00:16:55;124.57;;;55.80;;
13083;SDS011;6608;48.790;9.198;2023-11-19T00:19:21;124.30;;;55.90;;
13083;SDS011;6608;48.790;9.198;2023-11-19T00:21:48;123.60;;;55.43;;
13083;SDS011;6608;48.790;9.198;2023-11-19T00:24:16;122.87;;;55.67;;
13083;SDS011;6608;48.790;9.198;2023-11-19T00:26:43;122.90;;;55.63;;
13083;SDS011;6608;48.790;9.198;2023-11-19T00:29:09;126.83;;;56.43;;
13083;SDS011;6608;48.790;9.198;2023-11-19T00:31:36;121.50;;;55.07;;
13083;SDS011;6608;48.790;9.198;2023-11-19T00:34:03;123.67;;;55.67;;
13083;SDS011;6608;48.790;9.198;2023-11-19T00:36:31;122.83;;;55.47;;
13083;SDS011;6608;48.790;9.198;2023-11-19T00:38:57;123.57;;;55.40;;
13083;SDS011;6608;48.790;9.198;2023-11-19T00:41:25;126.90;;;56.43;;
13083;SDS011;6608;48.790;9.198;2023-11-19T00:43:52;124.13;;;56.00;;
13083;SDS011;6608;48.790;9.198;2023-11-19T00:46:18;123.57;;;55.70;;
13083;SDS011;6608;48.790;9.198;2023-11-19T00:48:45;122.93;;;55.90;;
13083;SDS011;6608;48.790;9.198;2023-11-19T00:51:12;124.27;;;55.97;;
13083;SDS011;6608;48.790;9.198;2023-11-19T00:53:39;122.90;;;55.63;;
13083;SDS011;6608;48.790;9.198;2023-11-19T00:56:05;124.00;;;56.33;;
13083;SDS011;6608;48.790;9.198;2023-11-19T00:58:32;125.27;;;55.87;;
13083;SDS011;6608;48.790;9.198;2023-11-19T01:00:59;125.03;;;55.73;;
13083;SDS011;6608;48.790;9.198;2023-11-19T01:03:26;123.23;;;55.60;;
13083;SDS011;6608;48.790;9.198;2023-11-19T01:05:52;129.43;;;57.40;;
13083;SDS011;6608;48.790;9.198;2023-11-19T01:08:19;125.23;;;56.27;;
13083;SDS011;6608;48.790;9.198;2023-11-19T01:10:45;127.17;;;56.33;;
13083;SDS011;6608;48.790;9.198;2023-11-19T01:13:12;124.03;;;55.87;;
13083;SDS011;6608;48.790;9.198;2023-11-19T01:15:40;126.23;;;55.83;;
13083;SDS011;6608;48.790;9.198;2023-11-19T01:18:07;126.87;;;56.10;;
13083;SDS011;6608;48.790;9.198;2023-11-19T01:20:34;122.20;;;55.50;;
13083;SDS011;6608;48.790;9.198;2023-11-19T01:23:00;122.17;;;55.27;;
13083;SDS011;6608;48.790;9.198;2023-11-19T01:25:26;125.43;;;56.33;;
13083;SDS011;6608;48.790;9.198;2023-11-19T01:27:53;124.17;;;56.27;;
13083;SDS011;6608;48.790;9.198;2023-11-19T01:30:20;124.13;;;55.93;;
13083;SDS011;6608;48.790;9.198;2023-11-19T01:32:48;126.10;;;56.70;;
13083;SDS011;6608;48.790;9.198;2023-11-19T01:35:14;125.80;;;56.03;;
13083;SDS011;6608;48.790;9.198;2023-11-19T01:37:41;125.40;;;56.00;;
13083;SDS011;6608;48.790;9.198;2023-11-19T01:40:07;124.13;;;56.03;;
13083;SDS011;6608;48.790;9.198;2023-11-19T01:42:36;126.37;;;56.50;;
13083;SDS011;6608;48.790;9.198;2023-11-19T01:45:03;123.87;;;55.87;;
13083;SDS011;6608;48.790;9.198;2023-11-19T01:47:32;124.47;;;56.03;;
13083;SDS011;6608;48.790;9.198;2023-11-19T01:50:01;129.37;;;57.23;;
13083;SDS011;6608;48.790;9.198;2023-11-19T01:52:31;122.83;;;55.47;;
13083;SDS011;6608;48.790;9.198;2023-11-19T01:54:58;125.47;;;56.17;;
13083;SDS011;6608;48.790;9.198;2023-11-19T01:57:24;126.17;;;56.10;;
13083;SDS011;6608;48.790;9.198;2023-11-19T01:59:51;126.93;;;56.80;;
13083;SDS011;6608;48.790;9.198;2023-11-19T02:02:18;123.23;;;55.93;;
13083;SDS011;6608;48.790;9.198;2023-11-19T02:04:45;126.23;;;56.60;;
13083;SDS011;6608;48.790;9.198;2023-11-19T02:07:14;124.10;;;55.83;;
13083;SDS011;6608;48.790;9.198;2023-11-19T02:09:42;124.67;;;55.73;;
13083;SDS011;6608;48.790;9.198;2023-11-19T02:12:09;122.67;;;55.63;;
13083;SDS011;6608;48.790;9.198;2023-11-19T02:14:37;124.43;;;56.13;;
13083;SDS011;6608;48.790;9.198;2023-11-19T02:17:03;124.53;;;56.27;;
13083;SDS011;6608;48.790;9.198;2023-11-19T02:19:30;125.10;;;56.30;;
13083;SDS011;6608;48.790;9.198;2023-11-19T02:21:56;128.20;;;56.13;;
13083;SDS011;6608;48.790;9.198;2023-11-19T02:24:24;124.67;;;55.87;;
13083;SDS011;6608;48.790;9.198;2023-11-19T02:26:54;124.63;;;55.63;;
13083;SDS011;6608;48.790;9.198;2023-11-19T02:29:25;125.30;;;56.37;;
13083;SDS011;6608;48.790;9.198;2023-11-19T02:31:52;123.97;;;56.10;;
13083;SDS011;6608;48.790;9.198;2023-11-19T02:34:19;127.33;;;56.67;;
13083;SDS011;6608;48.790;9.198;2023-11-19T02:36:46;132.77;;;57.50;;
13083;SDS011;6608;48.790;9.198;2023-11-19T02:39:13;125.13;;;56.13;;
13083;SDS011;6608;48.790;9.198;2023-11-19T02:41:40;123.73;;;56.13;;
13083;SDS011;6608;48.790;9.198;2023-11-19T02:44:06;125.03;;;56.03;;
13083;SDS011;6608;48.790;9.198;2023-11-19T02:46:34;124.37;;;55.93;;
13083;SDS011;6608;48.790;9.198;2023-11-19T02:49:00;123.30;;;55.80;;
13083;SDS011;6608;48.790;9.198;2023-11-19T02:51:27;126.17;;;56.03;;
13083;SDS011;6608;48.790;9.198;2023-11-19T02:53:55;127.33;;;56.90;;
13083;SDS011;6608;48.790;9.198;2023-11-19T02:56:21;127.97;;;57.13;;
13083;SDS011;6608;48.790;9.198;2023-11-19T02:58:51;124.70;;;55.97;;
13083;SDS011;6608;48.790;9.198;2023-11-19T03:01:21;129.23;;;57.50;;
13083;SDS011;6608;48.790;9.198;2023-11-19T03:03:56;130.53;;;57.60;;
13083;SDS011;6608;48.790;9.198;2023-11-19T03:06:23;129.97;;;57.50;;
13083;SDS011;6608;48.790;9.198;2023-11-19T03:08:49;124.87;;;56.13;;
13083;SDS011;6608;48.790;9.198;2023-11-19T03:11:16;128.93;;;57.60;;
13083;SDS011;6608;48.790;9.198;2023-11-19T03:13:42;124.40;;;55.83;;
13083;SDS011;6608;48.790;9.198;2023-11-19T03:16:08;127.17;;;56.90;;
13083;SDS011;6608;48.790;9.198;2023-11-19T03:18:36;126.40;;;56.20;;
13083;SDS011;6608;48.790;9.198;2023-11-19T03:21:05;124.70;;;56.07;;
13083;SDS011;6608;48.790;9.198;2023-11-19T03:23:32;125.17;;;56.17;;
13083;SDS011;6608;48.790;9.198;2023-11-19T03:25:58;128.27;;;57.37;;
13083;SDS011;6608;48.790;9.198;2023-11-19T03:28:28;125.83;;;56.50;;
13083;SDS011;6608;48.790;9.198;2023-11-19T03:30:54;124.80;;;56.20;;
13083;SDS011;6608;48.790;9.198;2023-11-19T03:33:21;124.93;;;56.23;;
13083;SDS011;6608;48.790;9.198;2023-11-19T03:35:47;124.80;;;56.57;;
13083;SDS011;6608;48.790;9.198;2023-11-19T03:38:15;128.30;;;56.90;;
13083;SDS011;6608;48.790;9.198;2023-11-19T03:40:41;124.77;;;56.30;;
13083;SDS011;6608;48.790;9.198;2023-11-19T03:43:08;125.27;;;56.03;;
13083;SDS011;6608;48.790;9.198;2023-11-19T03:45:35;123.20;;;56.00;;
13083;SDS011;6608;48.790;9.198;2023-11-19T03:48:02;124.97;;;56.07;;
13083;SDS011;6608;48.790;9.198;2023-11-19T03:50:29;124.73;;;56.33;;
13083;SDS011;6608;48.790;9.198;2023-11-19T03:52:55;129.50;;;57.57;;
13083;SDS011;6608;48.790;9.198;2023-11-19T03:55:23;125.83;;;56.37;;
13083;SDS011;6608;48.790;9.198;2023-11-19T03:57:48;125.23;;;56.30;;
13083;SDS011;6608;48.790;9.198;2023-11-19T04:00:15;125.13;;;56.40;;
13083;SDS011;6608;48.790;9.198;2023-11-19T04:02:41;125.40;;;56.53;;
13083;SDS011;6608;48.790;9.198;2023-11-19T04:05:08;124.27;;;56.20;;
13083;SDS011;6608;48.790;9.198;2023-11-19T04:07:35;124.40;;;56.07;;
13083;SDS011;6608;48.790;9.198;2023-11-19T04:10:02;128.10;;;56.03;;
13083;SDS011;6608;48.790;9.198;2023-11-19T04:12:30;125.23;;;56.37;;
13083;SDS011;6608;48.790;9.198;2023-11-19T04:14:56;126.07;;;56.67;;
13083;SDS011;6608;48.790;9.198;2023-11-19T04:17:23;128.03;;;56.83;;
13083;SDS011;6608;48.790;9.198;2023-11-19T04:19:50;126.27;;;56.50;;
13083;SDS011;6608;48.790;9.198;2023-11-19T04:22:16;126.83;;;56.47;;
13083;SDS011;6608;48.790;9.198;2023-11-19T04:24:42;126.97;;;56.87;;
13083;SDS011;6608;48.790;9.198;2023-11-19T04:27:10;125.17;;;56.37;;
13083;SDS011;6608;48.790;9.198;2023-11-19T04:29:38;125.60;;;55.87;;
13083;SDS011;6608;48.790;9.198;2023-11-19T04:32:05;126.60;;;56.00;;
13083;SDS011;6608;48.790;9.198;2023-11-19T04:34:32;125.77;;;55.53;;
13083;SDS011;6608;48.790;9.198;2023-11-19T04:36:58;122.47;;;54.83;;
13083;SDS011;6608;48.790;9.198;2023-11-19T04:39:27;123.57;;;54.90;;
13083;SDS011;6608;48.790;9.198;2023-11-19T04:41:53;123.60;;;54.77;;
13083;SDS011;6608;48.790;9.198;2023-11-19T04:44:20;124.30;;;55.03;;
13083;SDS011;6608;48.790;9.198;2023-11-19T04:46:48;131.63;;;57.00;;
13083;SDS011;6608;48.790;9.198;2023-11-19T04:49:14;126.67;;;55.43;;
13083;SDS011;6608;48.790;9.198;2023-11-19T04:51:42;129.07;;;56.07;;
13083;SDS011;6608;48.790;9.198;2023-11-19T04:54:08;124.67;;;55.00;;
13083;SDS011;6608;48.790;9.198;2023-11-19T04:56:35;129.93;;;56.40;;
13083;SDS011;6608;48.790;9.198;2023-11-19T04:59:02;130.57;;;56.07;;
13083;SDS011;6608;48.790;9.198;2023-11-19T05:01:28;126.23;;;55.23;;
13083;SDS011;6608;48.790;9.198;2023-11-19T05:03:57;125.17;;;55.07;;
13083;SDS011;6608;48.790;9.198;2023-11-19T05:06:25;125.40;;;55.37;;
13083;SDS011;6608;48.790;9.198;2023-11-19T05:08:52;126.40;;;55.00;;
13083;SDS011;6608;48.790;9.198;2023-11-19T05:11:19;124.90;;;55.07;;
13083;SDS011;6608;48.790;9.198;2023-11-19T05:13:45;126.20;;;55.10;;
13083;SDS011;6608;48.790;9.198;2023-11-19T05:16:12;124.90;;;54.93;;
13083;SDS011;6608;48.790;9.198;2023-11-19T05:18:40;125.60;;;55.20;;
13083;SDS011;6608;48.790;9.198;2023-11-19T05:21:08;127.27;;;55.60;;
13083;SDS011;6608;48.790;9.198;2023-11-19T05:23:34;127.50;;;55.73;;
13083;SDS011;6608;48.790;9.198;2023-11-19T05:26:01;127.03;;;55.57;;
13083;SDS011;6608;48.790;9.198;2023-11-19T05:28:27;127.03;;;55.43;;
13083;SDS011;6608;48.790;9.198;2023-11-19T05:30:53;126.63;;;55.13;;
13083;SDS011;6608;48.790;9.198;2023-11-19T05:33:20;127.47;;;55.47;;
13083;SDS011;6608;48.790;9.198;2023-11-19T05:35:46;128.07;;;55.60;;
13083;SDS011;6608;48.790;9.198;2023-11-19T05:38:14;126.77;;;55.40;;
13083;SDS011;6608;48.790;9.198;2023-11-19T05:40:41;126.43;;;55.27;;
13083;SDS011;6608;48.790;9.198;2023-11-19T05:43:07;126.97;;;55.57;;
13083;SDS011;6608;48.790;9.198;2023-11-19T05:45:33;127.20;;;55.57;;
13083;SDS011;6608;48.790;9.198;2023-11-19T05:48:00;125.73;;;55.27;;
13083;SDS011;6608;48.790;9.198;2023-11-19T05:50:29;127.40;;;55.50;;
13083;SDS011;6608;48.790;9.198;2023-11-19T05:52:55;127.00;;;55.73;;
13083;SDS011;6608;48.790;9.198;2023-11-19T05:55:23;126.00;;;55.30;;
13083;SDS011;6608;48.790;9.198;2023-11-19T05:57:50;130.73;;;55.60;;
13083;SDS011;6608;48.790;9.198;2023-11-19T06:00:17;126.93;;;55.37;;
13083;SDS011;6608;48.790;9.198;2023-11-19T06:02:43;127.40;;;55.50;;
13083;SDS011;6608;48.790;9.198;2023-11-19T06:05:10;126.33;;;55.27;;
13083;SDS011;6608;48.790;9.198;2023-11-19T06:07:36;133.37;;;57.20;;
13083;SDS011;6608;48.790;9.198;2023-11-19T06:10:04;126.40;;;55.33;;
13083;SDS011;6608;48.790;9.198;2023-11-19T06:12:33;130.73;;;56.23;;
13083;SDS011;6608;48.790;9.198;2023-11-19T06:15:03;131.97;;;57.00;;
13083;SDS011;6608;48.790;9.198;2023-11-19T06:17:29;126.30;;;55.30;;
13083;SDS011;6608;48.790;9.198;2023-11-19T06:19:56;130.80;;;56.63;;
13083;SDS011;6608;48.790;9.198;2023-11-19T06:22:22;128.00;;;55.40;;
13083;SDS011;6608;48.790;9.198;2023-11-19T06:24:49;132.93;;;57.07;;
13083;SDS011;6608;48.790;9.198;2023-11-19T06:27:15;133.37;;;57.10;;
13083;SDS011;6608;48.790;9.198;2023-11-19T06:29:43;131.60;;;56.60;;
13083;SDS011;6608;48.790;9.198;2023-11-19T06:32:09;133.03;;;57.20;;
13083;SDS011;6608;48.790;9.198;2023-11-19T06:34:36;130.93;;;56.53;;
13083;SDS011;6608;48.790;9.198;2023-11-19T06:37:02;130.60;;;56.57;;
13083;SDS011;6608;48.790;9.198;2023-11-19T06:39:29;127.37;;;55.67;;
13083;SDS011;6608;48.790;9.198;2023-11-19T06:41:55;126.93;;;55.60;;
13083;SDS011;6608;48.790;9.198;2023-11-19T06:44:22;126.73;;;55.47;;
13083;SDS011;6608;48.790;9.198;2023-11-19T06:46:53;133.37;;;56.93;;
13083;SDS011;6608;48.790;9.198;2023-11-19T06:49:19;126.13;;;55.37;;
13083;SDS011;6608;48.790;9.198;2023-11-19T06:51:46;130.90;;;56.40;;
13083;SDS011;6608;48.790;9.198;2023-11-19T06:54:13;129.50;;;55.93;;
13083;SDS011;6608;48.790;9.198;2023-11-19T06:56:39;127.03;;;55.50;;
13083;SDS011;6608;48.790;9.198;2023-11-19T06:59:06;130.50;;;56.47;;
13083;SDS011;6608;48.790;9.198;2023-11-19T07:01:34;128.27;;;55.80;;
13083;SDS011;6608;48.790;9.198;2023-11-19T07:04:02;127.60;;;55.50;;
13083;SDS011;6608;48.790;9.198;2023-11-19T07:06:33;128.83;;;56.17;;
13083;SDS011;6608;48.790;9.198;2023-11-19T07:08:59;127.43;;;55.57;;
13083;SDS011;6608;48.790;9.198;2023-11-19T07:11:31;132.77;;;57.00;;
13083;SDS011;6608;48.790;9.198;2023-11-19T07:13:57;131.23;;;56.60;;
13083;SDS011;6608;48.790;9.198;2023-11-19T07:16:25;128.97;;;55.63;;
13083;SDS011;6608;48.790;9.198;2023-11-19T07:18:52;132.90;;;57.13;;
13083;SDS011;6608;48.790;9.198;2023-11-19T07:21:20;132.00;;;56.93;;
13083;SDS011;6608;48.790;9.198;2023-11-19T07:23:47;128.97;;;55.77;;
13083;SDS011;6608;48.790;9.198;2023-11-19T07:26:13;128.80;;;55.93;;
13083;SDS011;6608;48.790;9.198;2023-11-19T07:28:39;136.03;;;57.13;;
13083;SDS011;6608;48.790;9.198;2023-11-19T07:31:06;129.53;;;56.00;;
13083;SDS011;6608;48.790;9.198;2023-11-19T07:33:33;133.50;;;57.23;;
13083;SDS011;6608;48.790;9.198;2023-11-19T07:36:00;130.97;;;56.23;;
13083;SDS011;6608;48.790;9.198;2023-11-19T07:38:27;130.67;;;56.40;;
13083;SDS011;6608;48.790;9.198;2023-11-19T07:40:54;133.43;;;57.03;;
13083;SDS011;6608;48.790;9.198;2023-11-19T07:43:20;130.10;;;56.20;;
13083;SDS011;6608;48.790;9.198;2023-11-19T07:45:47;128.20;;;55.70;;
13083;SDS011;6608;48.790;9.198;2023-11-19T07:48:13;130.37;;;56.00;;
13083;SDS011;6608;48.790;9.198;2023-11-19T07:50:40;131.10;;;56.43;;
13083;SDS011;6608;48.790;9.198;2023-11-19T07:53:07;129.77;;;56.20;;
13083;SDS011;6608;48.790;9.198;2023-11-19T07:55:35;127.80;;;55.87;;
13083;SDS011;6608;48.790;9.198;2023-11-19T07:58:01;130.13;;;56.23;;
13083;SDS011;6608;48.790;9.198;2023-11-19T08:00:28;130.27;;;56.40;;
13083;SDS011;6608;48.790;9.198;2023-11-19T08:02:54;130.87;;;56.33;;
13083;SDS011;6608;48.790;9.198;2023-11-19T08:05:21;128.13;;;55.87;;
13083;SDS011;6608;48.790;9.198;2023-11-19T08:07:49;130.17;;;56.37;;
13083;SDS011;6608;48.790;9.198;2023-11-19T08:10:16;133.80;;;57.00;;
13083;SDS011;6608;48.790;9.198;2023-11-19T08:12:44;135.70;;;57.67;;
13083;SDS011;6608;48.790;9.198;2023-11-19T08:15:10;133.20;;;57.20;;
13083;SDS011;6608;48.790;9.198;2023-11-19T08:17:36;133.20;;;57.13;;
13083;SDS011;6608;48.790;9.198;2023-11-19T08:20:03;129.50;;;56.07;;
13083;SDS011;6608;48.790;9.198;2023-11-19T08:22:30;134.57;;;57.30;;
13083;SDS011;6608;48.790;9.198;2023-11-19T08:24:56;130.50;;;56.30;;
13083;SDS011;6608;48.790;9.198;2023-11-19T08:27:22;134.87;;;57.10;;
13083;SDS011;6608;48.790;9.198;2023-11-19T08:29:53;131.03;;;56.47;;
13083;SDS011;6608;48.790;9.198;2023-11-19T08:32:21;131.50;;;56.53;;
13083;SDS011;6608;48.790;9.198;2023-11-19T08:34:48;131.70;;;56.40;;
13083;SDS011;6608;48.790;9.198;2023-11-19T08:37:14;133.77;;;56.80;;
13083;SDS011;6608;48.790;9.198;2023-11-19T08:39:43;131.93;;;56.70;;
13083;SDS011;6608;48.790;9.198;2023-11-19T08:42:09;133.90;;;57.03;;
13083;SDS011;6608;48.790;9.198;2023-11-19T08:44:35;136.13;;;56.80;;
13083;SDS011;6608;48.790;9.198;2023-11-19T08:47:03;134.37;;;56.90;;
13083;SDS011;6608;48.790;9.198;2023-11-19T08:49:30;139.10;;;58.33;;
13083;SDS011;6608;48.790;9.198;2023-11-19T08:51:56;135.23;;;57.40;;
13083;SDS011;6608;48.790;9.198;2023-11-19T08:54:23;135.13;;;57.40;;
13083;SDS011;6608;48.790;9.198;2023-11-19T08:56:49;134.47;;;57.40;;
13083;SDS011;6608;48.790;9.198;2023-11-19T08:59:15;135.47;;;57.67;;
13083;SDS011;6608;48.790;9.198;2023-11-19T09:01:42;137.43;;;57.87;;
13083;SDS011;6608;48.790;9.198;2023-11-19T09:04:10;136.83;;;57.67;;
13083;SDS011;6608;48.790;9.198;2023-11-19T09:06:37;137.47;;;57.67;;
13083;SDS011;6608;48.790;9.198;2023-11-19T09:09:03;142.07;;;58.93;;
13083;SDS011;6608;48.790;9.198;2023-11-19T09:11:30;142.40;;;58.70;;
13083;SDS011;6608;48.790;9.198;2023-11-19T09:13:57;148.10;;;59.70;;
13083;SDS011;6608;48.790;9.198;2023-11-19T09:16:23;152.43;;;61.73;;
13083;SDS011;6608;48.790;9.198;2023-11-19T09:18:50;152.50;;;61.27;;
13083;SDS011;6608;48.790;9.198;2023-11-19T09:21:18;148.63;;;60.67;;
13083;SDS011;6608;48.790;9.198;2023-11-19T09:23:44;152.50;;;61.03;;
13083;SDS011;6608;48.790;9.198;2023-11-19T09:26:13;147.83;;;60.87;;
13083;SDS011;6608;48.790;9.198;2023-11-19T09:28:39;148.90;;;61.27;;
13083;SDS011;6608;48.790;9.198;2023-11-19T09:31:12;151.63;;;61.20;;
13083;SDS011;6608;48.790;9.198;2023-11-19T09:33:39;148.90;;;61.27;;
13083;SDS011;6608;48.790;9.198;2023-11-19T09:36:05;150.63;;;61.63;;
13083;SDS011;6608;48.790;9.198;2023-11-19T09:38:33;149.77;;;61.10;;
13083;SDS011;6608;48.790;9.198;2023-11-19T09:41:03;148.60;;;60.43;;
13083;SDS011;6608;48.790;9.198;2023-11-19T09:43:33;145.90;;;60.20;;
13083;SDS011;6608;48.790;9.198;2023-11-19T09:46:00;148.37;;;61.13;;
13083;SDS011;6608;48.790;9.198;2023-11-19T09:48:30;146.17;;;60.57;;
13083;SDS011;6608;48.790;9.198;2023-11-19T09:50:57;149.73;;;61.40;;
13083;SDS011;6608;48.790;9.198;2023-11-19T09:53:24;147.80;;;61.07;;
13083;SDS011;6608;48.790;9.198;2023-11-19T09:55:52;151.63;;;62.03;;
13083;SDS011;6608;48.790;9.198;2023-11-19T09:58:19;155.30;;;63.00;;
13083;SDS011;6608;48.790;9.198;2023-11-19T10:00:45;149.57;;;61.67;;
13083;SDS011;6608;48.790;9.198;2023-11-19T10:03:12;159.97;;;64.67;;
13083;SDS011;6608;48.790;9.198;2023-11-19T10:05:38;151.80;;;62.50;;
13083;SDS011;6608;48.790;9.198;2023-11-19T10:08:05;152.90;;;63.17;;
13083;SDS011;6608;48.790;9.198;2023-11-19T10:10:31;153.13;;;63.13;;
13083;SDS011;6608;48.790;9.198;2023-11-19T10:12:59;157.00;;;64.10;;
13083;SDS011;6608;48.790;9.198;2023-11-19T10:15:26;153.63;;;63.07;;
13083;SDS011;6608;48.790;9.198;2023-11-19T10:17:55;154.60;;;63.57;;
13083;SDS011;6608;48.790;9.198;2023-11-19T10:20:21;153.90;;;63.17;;
13083;SDS011;6608;48.790;9.198;2023-11-19T10:22:47;154.27;;;63.40;;
13083;SDS011;6608;48.790;9.198;2023-11-19T10:25:21;152.20;;;62.50;;
13083;SDS011;6608;48.790;9.198;2023-11-19T10:27:48;151.43;;;62.20;;
13083;SDS011;6608;48.790;9.198;2023-11-19T10:30:18;150.47;;;62.07;;
13083;SDS011;6608;48.790;9.198;2023-11-19T10:32:46;150.43;;;61.93;;
13083;SDS011;6608;48.790;9.198;2023-11-19T10:35:16;149.67;;;61.83;;
13083;SDS011;6608;48.790;9.198;2023-11-19T10:37:43;148.90;;;61.60;;
13083;SDS011;6608;48.790;9.198;2023-11-19T10:40:09;153.57;;;62.93;;
13083;SDS011;6608;48.790;9.198;2023-11-19T10:42:36;148.70;;;61.23;;
13083;SDS011;6608;48.790;9.198;2023-11-19T10:45:03;149.07;;;61.30;;
13083;SDS011;6608;48.790;9.198;2023-11-19T10:47:30;149.50;;;61.80;;
13083;SDS011;6608;48.790;9.198;2023-11-19T10:49:58;153.83;;;63.23;;
13083;SDS011;6608;48.790;9.198;2023-11-19T10:52:25;153.33;;;62.80;;
13083;SDS011;6608;48.790;9.198;2023-11-19T10:54:52;155.03;;;63.53;;
13083;SDS011;6608;48.790;9.198;2023-11-19T10:57:21;151.40;;;62.67;;
13083;SDS011;6608;48.790;9.198;2023-11-19T10:59:48;151.80;;;62.20;;
13083;SDS011;6608;48.790;9.198;2023-11-19T11:02:18;155.83;;;63.40;;
13083;SDS011;6608;48.790;9.198;2023-11-19T11:04:46;153.17;;;62.73;;
13083;SDS011;6608;48.790;9.198;2023-11-19T11:07:14;152.70;;;62.47;;
13083;SDS011;6608;48.790;9.198;2023-11-19T11:09:40;152.07;;;62.13;;
13083;SDS011;6608;48.790;9.198;2023-11-19T11:12:08;149.37;;;61.90;;
13083;SDS011;6608;48.790;9.198;2023-11-19T11:14:35;150.00;;;61.77;;
13083;SDS011;6608;48.790;9.198;2023-11-19T11:17:05;148.97;;;61.43;;
13083;SDS011;6608;48.790;9.198;2023-11-19T11:19:32;149.40;;;61.57;;
13083;SDS011;6608;48.790;9.198;2023-11-19T11:22:00;149.40;;;61.27;;
13083;SDS011;6608;48.790;9.198;2023-11-19T11:24:36;148.47;;;60.90;;
13083;SDS011;6608;48.790;9.198;2023-11-19T11:27:10;149.20;;;60.90;;
13083;SDS011;6608;48.790;9.198;2023-11-19T11:29:41;147.40;;;60.63;;
13083;SDS011;6608;48.790;9.198;2023-11-19T11:32:16;146.63;;;60.20;;
13083;SDS011;6608;48.790;9.198;2023-11-19T11:34:48;150.50;;;61.63;;
13083;SDS011;6608;48.790;9.198;2023-11-19T11:37:21;148.20;;;60.37;;
13083;SDS011;6608;48.790;9.198;2023-11-19T11:39:52;146.87;;;60.50;;
13083;SDS011;6608;48.790;9.198;2023-11-19T11:42:34;146.23;;;60.57;;
13083;SDS011;6608;48.790;9.198;2023-11-19T11:45:02;147.17;;;60.43;;
13083;SDS011;6608;48.790;9.198;2023-11-19T11:50:15;148.33;;;61.10;;
13083;SDS011;6608;48.790;9.198;2023-11-19T11:55:25;153.23;;;61.80;;
13083;SDS011;6608;48.790;9.198;2023-11-19T11:57:51;145.70;;;60.37;;
13083;SDS011;6608;48.790;9.198;2023-11-19T12:00:21;149.00;;;61.27;;
13083;SDS011;6608;48.790;9.198;2023-11-19T12:02:48;151.47;;;62.23;;
13083;SDS011;6608;48.790;9.198;2023-11-19T12:05:15;147.77;;;60.87;;
13083;SDS011;6608;48.790;9.198;2023-11-19T12:07:44;149.60;;;61.27;;
13083;SDS011;6608;48.790;9.198;2023-11-19T12:10:20;148.63;;;61.43;;
13083;SDS011;6608;48.790;9.198;2023-11-19T12:12:48;151.43;;;62.37;;
13083;SDS011;6608;48.790;9.198;2023-11-19T12:15:14;149.70;;;61.80;;
13083;SDS011;6608;48.790;9.198;2023-11-19T12:17:46;153.03;;;62.10;;
13083;SDS011;6608;48.790;9.198;2023-11-19T12:20:14;155.97;;;63.60;;
13083;SDS011;6608;48.790;9.198;2023-11-19T12:22:42;152.07;;;62.37;;
13083;SDS011;6608;48.790;9.198;2023-11-19T12:25:09;153.73;;;63.23;;
13083;SDS011;6608;48.790;9.198;2023-11-19T12:27:36;153.40;;;63.23;;
13083;SDS011;6608;48.790;9.198;2023-11-19T12:30:05;166.93;;;64.60;;
13083;SDS011;6608;48.790;9.198;2023-11-19T12:32:38;160.93;;;63.47;;
13083;SDS011;6608;48.790;9.198;2023-11-19T12:35:05;159.03;;;63.63;;
13083;SDS011;6608;48.790;9.198;2023-11-19T12:37:32;166.37;;;63.53;;
13083;SDS011;6608;48.790;9.198;2023-11-19T12:40:00;164.50;;;65.33;;
13083;SDS011;6608;48.790;9.198;2023-11-19T12:42:35;162.13;;;63.70;;
13083;SDS011;6608;48.790;9.198;2023-11-19T12:45:01;164.80;;;65.40;;
13083;SDS011;6608;48.790;9.198;2023-11-19T12:47:29;154.87;;;64.77;;
13083;SDS011;6608;48.790;9.198;2023-11-19T12:49:55;140.20;;;62.33;;
13083;SDS011;6608;48.790;9.198;2023-11-19T12:52:22;130.77;;;61.57;;
13083;SDS011;6608;48.790;9.198;2023-11-19T12:54:49;129.60;;;62.40;;
13083;SDS011;6608;48.790;9.198;2023-11-19T12:57:16;126.10;;;61.33;;
13083;SDS011;6608;48.790;9.198;2023-11-19T12:59:53;127.90;;;60.93;;
13083;SDS011;6608;48.790;9.198;2023-11-19T13:02:20;124.20;;;60.60;;
13083;SDS011;6608;48.790;9.198;2023-11-19T13:04:48;127.83;;;61.67;;
13083;SDS011;6608;48.790;9.198;2023-11-19T13:07:19;125.97;;;61.07;;
13083;SDS011;6608;48.790;9.198;2023-11-19T13:09:46;128.43;;;61.67;;
13083;SDS011;6608;48.790;9.198;2023-11-19T13:12:13;162.17;;;64.60;;
13083;SDS011;6608;48.790;9.198;2023-11-19T13:14:40;165.57;;;65.50;;
13083;SDS011;6608;48.790;9.198;2023-11-19T13:17:07;159.93;;;64.20;;
13083;SDS011;6608;48.790;9.198;2023-11-19T13:19:33;160.43;;;64.30;;
13083;SDS011;6608;48.790;9.198;2023-11-19T13:22:01;162.40;;;65.37;;
13083;SDS011;6608;48.790;9.198;2023-11-19T13:24:28;166.83;;;65.73;;
13083;SDS011;6608;48.790;9.198;2023-11-19T13:26:54;167.00;;;66.27;;
13083;SDS011;6608;48.790;9.198;2023-11-19T13:29:21;164.43;;;64.50;;
13083;SDS011;6608;48.790;9.198;2023-11-19T13:31:47;161.83;;;64.50;;
13083;SDS011;6608;48.790;9.198;2023-11-19T13:34:14;166.77;;;66.13;;
13083;SDS011;6608;48.790;9.198;2023-11-19T13:36:41;160.27;;;63.63;;
13083;SDS011;6608;48.790;9.198;2023-11-19T13:39:09;176.47;;;66.87;;
13083;SDS011;6608;48.790;9.198;2023-11-19T13:41:37;158.43;;;62.60;;
13083;SDS011;6608;48.790;9.198;2023-11-19T13:44:04;156.93;;;62.47;;
13083;SDS011;6608;48.790;9.198;2023-11-19T13:46:30;157.50;;;62.83;;
13083;SDS011;6608;48.790;9.198;2023-11-19T13:48:57;155.40;;;62.27;;
13083;SDS011;6608;48.790;9.198;2023-11-19T13:51:23;157.87;;;63.00;;
13083;SDS011;6608;48.790;9.198;2023-11-19T13:53:49;161.43;;;63.77;;
13083;SDS011;6608;48.790;9.198;2023-11-19T13:56:18;155.30;;;62.30;;
13083;SDS011;6608;48.790;9.198;2023-11-19T13:58:44;161.47;;;63.77;;
13083;SDS011;6608;48.790;9.198;2023-11-19T14:01:10;157.07;;;62.80;;
13083;SDS011;6608;48.790;9.198;2023-11-19T14:03:37;166.87;;;65.13;;
13083;SDS011;6608;48.790;9.198;2023-11-19T14:06:04;155.87;;;62.30;;
13083;SDS011;6608;48.790;9.198;2023-11-19T14:08:33;158.03;;;62.57;;
13083;SDS011;6608;48.790;9.198;2023-11-19T14:11:18;156.30;;;62.07;;
13083;SDS011;6608;48.790;9.198;2023-11-19T14:13:44;155.97;;;61.73;;
13083;SDS011;6608;48.790;9.198;2023-11-19T14:16:11;154.13;;;61.23;;
13083;SDS011;6608;48.790;9.198;2023-11-19T14:18:38;152.43;;;60.80;;
13083;SDS011;6608;48.790;9.198;2023-11-19T14:21:04;158.03;;;62.53;;
13083;SDS011;6608;48.790;9.198;2023-11-19T14:23:31;156.87;;;61.93;;
13083;SDS011;6608;48.790;9.198;2023-11-19T14:25:57;153.70;;;60.90;;
13083;SDS011;6608;48.790;9.198;2023-11-19T14:28:25;154.03;;;61.37;;